Flight Track Log - Related Links

Times and Time Zones

All times are in EDT time to prevent confusion due to time zone crossing. See the CNS22 flight status page for this flight to view local times or setup timezone preferences in your user account.

Time Position Orientation Groundspeed Altitude Reporting Facility
EDT Latitude Longitude Course Direction KTS MPH feet Rate Location/Type
Tue 12:15:20 PM 33.9214 -84.2367 63° Northeast 157 181 13,500  Level Atlanta Center
Tue 12:16:20 PM 33.9425 -84.1842 64° Northeast 165 190 14,200 750 Climbing Atlanta Center
Tue 12:17:20 PM 33.9675 -84.1189 65° Northeast 202 232 15,000 800 Climbing Atlanta Center
Tue 12:18:20 PM 33.9947 -84.0489 65° Northeast 219 252 15,800 800 Climbing Atlanta Center
Tue 12:19:20 PM 34.0217 -83.9786 65° Northeast 224 258 16,600 800 Climbing Atlanta Center
Tue 12:20:00 PM 33.8955 -83.8227 63° Northeast  Level Estimated
Tue 12:20:20 PM 34.0489 -83.9083 65° Northeast 224 258 17,400  Level Atlanta Center
Tue 12:21:20 PM 34.0781 -83.8381 63° Northeast 230 265 17,500 50 Climbing Atlanta Center
Tue 12:22:20 PM 34.1069 -83.7578 66° East 246 283 17,500  Level Atlanta Center
Tue 12:23:20 PM 34.1422 -83.6697 64° Northeast 251 289 17,500  Level Atlanta Center
Tue 12:24:20 PM 34.1711 -83.5919 66° East 259 298 17,500  Level Atlanta Center
Tue 12:25:20 PM 34.2022 -83.5089 66° East 259 298 17,500  Level Atlanta Center
Tue 12:26:20 PM 34.2331 -83.4283 65° Northeast 259 298 17,500  Level Atlanta Center
Tue 12:27:20 PM 34.2639 -83.3475 65° Northeast 259 298 17,500  Level Atlanta Center
Tue 12:28:20 PM 34.2947 -83.2669 65° Northeast 254 292 17,500  Level Atlanta Center
Tue 12:29:20 PM 34.3256 -83.1861 65° Northeast 254 292 17,500  Level Atlanta Center
Tue 12:30:20 PM 34.3583 -83.1028 65° Northeast 254 292 17,500  Level Atlanta Center
Tue 12:31:20 PM 34.3850 -83.0244 68° East 254 292 17,500  Level Atlanta Center
Tue 12:32:20 PM 34.4156 -82.9536 62° Northeast 254 292 17,500  Level Atlanta Center
Tue 12:33:20 PM 34.4442 -82.8725 67° East 259 298 17,500  Level Atlanta Center
Tue 12:34:20 PM 34.4786 -82.7914 63° Northeast 259 298 17,500  Level Atlanta Center
Tue 12:35:20 PM 34.5050 -82.7078 69° East 259 298 17,500  Level Atlanta Center
Tue 12:36:20 PM 34.5353 -82.6292 65° Northeast 259 298 17,500  Level Atlanta Center
Tue 12:37:20 PM 34.5636 -82.5406 69° East 254 292 17,500  Level Atlanta Center
Tue 12:38:20 PM 34.5958 -82.4592 64° Northeast 254 292 17,500  Level Atlanta Center
Tue 12:39:20 PM 34.6242 -82.3803 66° East 254 292 17,500  Level Atlanta Center
Tue 12:40:20 PM 34.6544 -82.2989 66° East 254 292 17,500  Level Atlanta Center
Tue 12:41:20 PM 34.6844 -82.2175 66° East 254 292 17,500  Level Atlanta Center
Tue 12:42:20 PM 34.7167 -82.1333 65° Northeast 254 292 17,500  Level Atlanta Center
Tue 12:43:20 PM 34.7444 -82.0519 67° East 260 299 17,500  Level Atlanta Center
Tue 12:44:20 PM 34.7744 -81.9753 65° Northeast 255 293 17,500  Level Atlanta Center
Tue 12:45:20 PM 34.8044 -81.8936 66° East 255 293 17,500  Level Atlanta Center
Tue 12:46:20 PM 34.8342 -81.8094 67° East 255 293 17,500  Level Atlanta Center
Tue 12:47:20 PM 34.8642 -81.7300 65° Northeast 255 293 17,500  Level Atlanta Center
Tue 12:48:20 PM 34.8939 -81.6508 65° Northeast 255 293 17,500  Level Atlanta Center
Tue 12:49:20 PM 34.9233 -81.5664 67° East 260 299 17,500  Level Atlanta Center
Tue 12:50:20 PM 34.9492 -81.4919 67° East 260 299 17,500  Level Atlanta Center
Tue 12:51:20 PM 34.9767 -81.4100 68° East 260 299 17,500  Level Atlanta Center
Tue 12:52:20 PM 35.0061 -81.3281 66° East 254 292 17,500  Level Atlanta Center
Tue 12:53:20 PM 35.0356 -81.2458 66° East 254 292 17,500  Level Atlanta Center
Tue 12:54:20 PM 35.0650 -81.1636 66° East 254 292 17,500  Level Atlanta Center
Tue 12:55:20 PM 35.0944 -81.0839 66° East 254 292 17,500  Level Atlanta Center
Tue 12:56:20 PM 35.1214 -80.9992 69° East 254 292 17,500  Level Atlanta Center
Tue 12:57:20 PM 35.1508 -80.9169 66° East 254 292 17,500  Level Atlanta Center
Tue 12:58:20 PM 35.1800 -80.8369 66° East 254 292 17,500  Level Atlanta Center
Tue 12:59:20 PM 35.2131 -80.7467 66° East 254 292 17,500  Level Atlanta Center
Tue 01:00:20 PM 35.2419 -80.6617 67° East 254 292 17,500  Level Atlanta Center
Tue 01:01:20 PM 35.2689 -80.5817 68° East 254 292 17,500  Level Atlanta Center
Tue 01:02:20 PM 35.2981 -80.4992 67° East 254 292 17,500  Level Atlanta Center
Tue 01:03:20 PM 35.3267 -80.4139 68° East 254 292 17,500  Level Atlanta Center
Tue 01:04:20 PM 35.3578 -80.3308 65° Northeast 254 292 17,500  Level Atlanta Center
Tue 01:05:20 PM 35.3864 -80.2481 67° East 254 292 17,500 -250 Level Atlanta Center
Tue 01:06:20 PM 35.4150 -80.1603 68° East 259 298 17,000 -500 Descending Atlanta Center
Tue 01:07:20 PM 35.4456 -80.0747 66° East 265 305 16,500 -490 Descending Atlanta Center
Tue 01:07:58 PM 35.4603 -80.0292 68° East 266 306 16,200 -490 Descending Washington Center
Tue 01:08:58 PM 35.4931 -79.9339 67° East 259 298 15,700 -496 Descending Washington Center
Tue 01:09:59 PM 35.5231 -79.8539 65° Northeast 272 313 15,200 -496 Descending Washington Center
Tue 01:10:59 PM 35.5533 -79.7611 68° East 272 313 14,700 -496 Descending Washington Center
Tue 01:12:00 PM 35.5858 -79.6683 67° East 272 313 14,200 -477 Descending Washington Center
Tue 01:12:27 PM 35.5953 -79.6331 72° East 277 319 14,000 -517 Descending Washington Center
Tue 01:12:58 PM 35.6114 -79.5931 64° Northeast 265 305 13,700 -527 Descending Washington Center
Tue 01:13:58 PM 35.6417 -79.4975 69° East 271 312 13,200 -538 Descending Washington Center
Tue 01:14:16 PM 35.6486 -79.4747 69° East 275 316 13,000 -658 Descending Washington Center
Tue 01:15:11 PM 35.6764 -79.3942 67° East 277 319 12,400 -750 Descending Washington Center
Tue 01:16:00 PM 35.7017 -79.3186 68° East 271 312 11,700 -896 Descending Washington Center
Tue 01:16:18 PM 35.7022 -79.2958 88° East 284 327 11,400 -900 Descending Washington Center
Tue 01:17:00 PM 35.6981 -79.2342 95° East 271 312 10,800 -1,000 Descending Washington Center
Tue 01:17:18 PM 35.6928 -79.1956 100° East 295 339 10,400 -1,138 Descending Washington Center
Tue 01:17:58 PM 35.6886 -79.1264 94° East 276 318 9,700 -1,082 Descending Washington Center
Tue 01:18:19 PM 35.6853 -79.0956 98° East 286 329 9,300 -1,024 Descending Washington Center
Tue 01:19:20 PM 35.6778 -79.0006 96° East 280 322 8,300 -960 Descending Washington Center
Tue 01:19:59 PM 35.6833 -78.9497 82° East 270 311 7,700 -1,100 Descending Washington Center
Tue 01:20:20 PM 35.6886 -78.9114 80° East 251 289 7,200 -984 Descending Washington Center
Tue 01:21:00 PM 35.7022 -78.8686 69° East 254 292 6,700 -885 Descending Washington Center
Tue 01:21:21 PM 35.7075 -78.8303 80° East 249 287 6,300 -1,034 Descending Washington Center
Tue 01:21:58 PM 35.7214 -78.7822 70° East 254 292 5,700 -1,180 Descending Washington Center
Tue 01:22:22 PM 35.7344 -78.7547 60° Northeast 240 276 5,100 -1,643 Descending Washington Center
Tue 01:23:22 PM 35.7797 -78.7078 40° Northeast 188 216 3,400 -1,512 Descending Washington Center
Tue 01:24:29 PM 35.8250 -78.7275 341° North 160 184 1,900 -1,039 Descending Washington Center
Tue 01:25:29 PM 35.8472 -78.7542 316° Northwest 96 110 1,200 -700 Descending Washington Center
Tue 01:27:00 PM 35.8667 -78.7833 34° Northeast  Level FlightAware Approximate
Tue 01:34:00 PM 35.8776 -78.7875 34° Northeast  Level Estimated
Tue 01:35:00 PM 35.8776 -78.7875 34° Northeast  Level Estimated

Login

Don't have an account? Register now (free) for customized features, flight alerts, and more!